Time;durP1;ratioP1;P1;durP2;ratioP2;P2;SDS_P1;SDS_P2;PMS_P1;PMS_P2;Temp;Humidity;BMP_temperature;BMP_pressure;BME280_temperature;BME280_humidity;BME280_pressure;Samples;Min_cycle;Max_cycle;Signal;HPM_P1;HPM_P2
2022/03/07 00:00:12;;;;;;;;;;;;;;;;;;5055069;28;20263;-22
2022/03/07 00:02:38;;;;;;;;;;;;;;;;;;5054693;28;19913;-21
2022/03/07 00:05:04;;;;;;;;;;;;;;;;;;5054739;28;19991;-21
2022/03/07 00:07:30;;;;;;;;;;;;;;;;;;5054491;28;19960;-22
2022/03/07 00:09:56;;;;;;;;;;;;;;;;;;5055194;28;19913;-21
2022/03/07 00:12:22;;;;;;;;;;;;;;;;;;5054853;28;19966;-21
2022/03/07 00:14:48;;;;;;;;;;;;;;;;;;5054902;28;20369;-22
2022/03/07 00:17:14;;;;;;;;;;;;;;;;;;5054868;28;19943;-22
2022/03/07 00:19:40;;;;;;;;;;;;;;;;;;5054598;28;19909;-22
2022/03/07 00:22:06;;;;;;;;;;;;;;;;;;5054909;28;20237;-21
2022/03/07 00:24:32;;;;;;;;;;;;;;;;;;5058992;28;19917;-22
2022/03/07 00:26:58;;;;;;;;;;;;;;;;;;5058291;28;19912;-22
2022/03/07 00:29:24;;;;;;;;;;;;;;;;;;5058472;28;20287;-22
2022/03/07 00:31:50;;;;;;;;;;;;;;;;;;5058431;28;20263;-21
2022/03/07 00:34:17;;;;;;;;;;;;;;;;;;5058159;28;20340;-22
2022/03/07 00:36:43;;;;;;;;;;;;;;;;;;5058683;28;20015;-21
2022/03/07 00:39:09;;;;;;;;;;;;;;;;;;5058087;28;20344;-21
2022/03/07 00:41:35;;;;;;;;;;;;;;;;;;5058055;28;20263;-22
2022/03/07 00:44:01;;;;;;;;;;;;;;;;;;5058531;28;19916;-21
2022/03/07 00:46:27;;;;;;;;;;;;;;;;;;5057943;28;20003;-22
2022/03/07 00:48:53;;;;;;;;;;;;;;;;;;5058158;28;19913;-22
2022/03/07 00:51:19;;;;;;;;;;;;;;;;;;5058119;28;20253;-22
2022/03/07 00:53:46;;;;;;;;;;;;;;;;;;5057803;28;19913;-21
2022/03/07 00:56:13;;;;;;;;;;;;;;;;;;5058029;28;20073;-21
2022/03/07 00:58:39;;;;;;;;;;;;;;;;;;5058315;28;19984;-21
2022/03/07 01:01:05;;;;;;;;;;;;;;;;;;5057687;28;19917;-22
2022/03/07 01:03:31;;;;;;;;;;;;;;;;;;5057586;28;19916;-21
2022/03/07 01:05:57;;;;;;;;;;;;;;;;;;5057379;28;20379;-22
2022/03/07 01:08:23;;;;;;;;;;;;;;;;;;5057499;28;19920;-21
2022/03/07 01:10:49;;;;;;;;;;;;;;;;;;5057533;28;20004;-21
2022/03/07 01:13:15;;;;;;;;;;;;;;;;;;5057363;28;19974;-21
2022/03/07 01:15:41;;;;;;;;;;;;;;;;;;5057414;28;19909;-21
2022/03/07 01:18:07;;;;;;;;;;;;;;;;;;5057268;28;20008;-21
2022/03/07 01:20:33;;;;;;;;;;;;;;;;;;5057308;28;20374;-21
2022/03/07 01:22:59;;;;;;;;;;;;;;;;;;5057191;28;19940;-21
2022/03/07 01:25:25;;;;;;;;;;;;;;;;;;5057877;28;19924;-21
2022/03/07 01:27:51;;;;;;;;;;;;;;;;;;5057156;28;19925;-21
2022/03/07 01:30:17;;;;;;;;;;;;;;;;;;5057185;28;19947;-21
2022/03/07 01:32:43;;;;;;;;;;;;;;;;;;5057411;28;19998;-21
2022/03/07 01:35:09;;;;;;;;;;;;;;;;;;5056144;28;20298;-21
2022/03/07 01:37:35;;;;;;;;;;;;;;;;;;5057305;28;19928;-21
2022/03/07 01:40:01;;;;;;;;;;;;;;;;;;5057022;28;20232;-21
2022/03/07 01:42:27;;;;;;;;;;;;;;;;;;5056861;28;19913;-21
2022/03/07 01:44:53;;;;;;;;;;;;;;;;;;5056837;28;19928;-21
2022/03/07 01:47:19;;;;;;;;;;;;;;;;;;5056741;28;19992;-21
2022/03/07 01:49:45;;;;;;;;;;;;;;;;;;5057074;28;19916;-21
2022/03/07 01:52:12;;;;;;;;;;;;;;;;;;5056939;28;20314;-22
2022/03/07 01:54:38;;;;;;;;;;;;;;;;;;5056715;28;20012;-23
2022/03/07 01:57:04;;;;;;;;;;;;;;;;;;5056626;28;19952;-21
2022/03/07 01:59:33;;;;;;;;;;;;;;;;;;5057170;28;19923;-22
2022/03/07 02:02:00;;;;;;;;;;;;;;;;;;5056736;28;19912;-21
2022/03/07 02:04:26;;;;;;;;;;;;;;;;;;5056523;28;19916;-22
2022/03/07 02:06:52;;;;;;;;;;;;;;;;;;5056185;28;19920;-22
2022/03/07 02:09:18;;;;;;;;;;;;;;;;;;5056616;28;19913;-22
2022/03/07 02:11:44;;;;;;;;;;;;;;;;;;5056636;28;20324;-21
2022/03/07 02:14:11;;;;;;;;;;;;;;;;;;5056252;28;19908;-22
2022/03/07 02:16:37;;;;;;;;;;;;;;;;;;5056237;28;19920;-22
2022/03/07 02:19:03;;;;;;;;;;;;;;;;;;5056542;28;20394;-22
2022/03/07 02:21:29;;;;;;;;;;;;;;;;;;5056159;28;20393;-30
2022/03/07 02:23:55;;;;;;;;;;;;;;;;;;5056288;28;19916;-21
2022/03/07 02:26:21;;;;;;;;;;;;;;;;;;5056062;28;19913;-21
2022/03/07 02:28:47;;;;;;;;;;;;;;;;;;5056485;28;19920;-22
2022/03/07 02:31:13;;;;;;;;;;;;;;;;;;5056263;28;20344;-23
2022/03/07 02:33:39;;;;;;;;;;;;;;;;;;5056151;28;19908;-21
2022/03/07 02:36:05;;;;;;;;;;;;;;;;;;5055849;28;19982;-21
2022/03/07 02:38:31;;;;;;;;;;;;;;;;;;5054933;28;20320;-22
2022/03/07 02:40:57;;;;;;;;;;;;;;;;;;5055779;28;19932;-21
2022/03/07 02:43:23;;;;;;;;;;;;;;;;;;5055726;28;20348;-21
2022/03/07 02:45:51;;;;;;;;;;;;;;;;;;5055591;28;20315;-22
2022/03/07 02:48:18;;;;;;;;;;;;;;;;;;5055604;28;19925;-22
2022/03/07 02:50:44;;;;;;;;;;;;;;;;;;5055681;28;20352;-24
2022/03/07 02:53:10;;;;;;;;;;;;;;;;;;5055763;28;19970;-21
2022/03/07 02:55:36;;;;;;;;;;;;;;;;;;5055540;28;20327;-22
2022/03/07 02:58:02;;;;;;;;;;;;;;;;;;5056085;28;19959;-22
2022/03/07 03:00:28;;;;;;;;;;;;;;;;;;5055522;28;19913;-21
2022/03/07 03:02:54;;;;;;;;;;;;;;;;;;5055605;28;19912;-22
2022/03/07 03:05:20;;;;;;;;;;;;;;;;;;5055464;28;19992;-22
2022/03/07 03:07:47;;;;;;;;;;;;;;;;;;5055064;28;19971;-21
2022/03/07 03:10:13;;;;;;;;;;;;;;;;;;5055349;28;19909;-22
2022/03/07 03:12:39;;;;;;;;;;;;;;;;;;5055745;28;19965;-21
2022/03/07 03:15:05;;;;;;;;;;;;;;;;;;5055294;28;20335;-24
2022/03/07 03:17:31;;;;;;;;;;;;;;;;;;5055239;28;19913;-22
2022/03/07 03:19:57;;;;;;;;;;;;;;;;;;5055209;28;20017;-22
2022/03/07 03:22:23;;;;;;;;;;;;;;;;;;5054147;28;19923;-21
2022/03/07 03:24:49;;;;;;;;;;;;;;;;;;5054160;28;19988;-22
2022/03/07 03:27:15;;;;;;;;;;;;;;;;;;5054075;28;20008;-22
2022/03/07 03:29:41;;;;;;;;;;;;;;;;;;5055046;28;20117;-24
2022/03/07 03:32:07;;;;;;;;;;;;;;;;;;5055031;28;19919;-22
2022/03/07 03:34:33;;;;;;;;;;;;;;;;;;5055038;28;19923;-22
2022/03/07 03:36:59;;;;;;;;;;;;;;;;;;5054109;28;20310;-21
2022/03/07 03:39:25;;;;;;;;;;;;;;;;;;5055001;28;20343;-21
2022/03/07 03:41:51;;;;;;;;;;;;;;;;;;5054873;28;19975;-21
2022/03/07 03:44:17;;;;;;;;;;;;;;;;;;5055223;28;20315;-22
2022/03/07 03:46:43;;;;;;;;;;;;;;;;;;5054871;28;19913;-22
2022/03/07 03:49:09;;;;;;;;;;;;;;;;;;5054779;28;19999;-22
2022/03/07 03:51:35;;;;;;;;;;;;;;;;;;5054821;28;19921;-21
2022/03/07 03:54:01;;;;;;;;;;;;;;;;;;5055352;28;20275;-22
2022/03/07 03:56:27;;;;;;;;;;;;;;;;;;5054861;28;19913;-22
2022/03/07 03:58:53;;;;;;;;;;;;;;;;;;5058556;28;19991;-22
2022/03/07 04:01:19;;;;;;;;;;;;;;;;;;5059364;28;20227;-21
2022/03/07 04:03:45;;;;;;;;;;;;;;;;;;5058754;28;20357;-22
2022/03/07 04:06:11;;;;;;;;;;;;;;;;;;5058492;28;20040;-21
2022/03/07 04:08:38;;;;;;;;;;;;;;;;;;5058644;28;20023;-21
2022/03/07 04:11:04;;;;;;;;;;;;;;;;;;5058667;28;19924;-21
2022/03/07 04:13:30;;;;;;;;;;;;;;;;;;5059390;28;19909;-24
2022/03/07 04:15:56;;;;;;;;;;;;;;;;;;5058862;28;19913;-23
2022/03/07 04:18:22;;;;;;;;;;;;;;;;;;5059045;28;19920;-22
2022/03/07 04:20:48;;;;;;;;;;;;;;;;;;5058775;28;19913;-21
2022/03/07 04:23:20;;;;;;;;;;;;;;;;;;5058353;28;19912;-23
2022/03/07 04:25:46;;;;;;;;;;;;;;;;;;5058685;28;19912;-21
2022/03/07 04:28:13;;;;;;;;;;;;;;;;;;5058277;28;20427;-22
2022/03/07 04:30:39;;;;;;;;;;;;;;;;;;5058499;28;19913;-21
2022/03/07 04:33:05;;;;;;;;;;;;;;;;;;5058705;28;20305;-22
2022/03/07 04:35:31;;;;;;;;;;;;;;;;;;5058181;28;19971;-22
2022/03/07 04:37:57;;;;;;;;;;;;;;;;;;5058070;28;19944;-21
2022/03/07 04:40:23;;;;;;;;;;;;;;;;;;5058080;28;19935;-21
2022/03/07 04:42:49;;;;;;;;;;;;;;;;;;5058172;28;19994;-21
2022/03/07 04:45:15;;;;;;;;;;;;;;;;;;5058497;28;19919;-24
2022/03/07 04:47:41;;;;;;;;;;;;;;;;;;5058336;28;19917;-21
2022/03/07 04:50:07;;;;;;;;;;;;;;;;;;5057850;28;19990;-22
2022/03/07 04:52:34;;;;;;;;;;;;;;;;;;5057772;28;19913;-21
2022/03/07 04:55:00;;;;;;;;;;;;;;;;;;5057704;28;19978;-22
2022/03/07 04:57:26;;;;;;;;;;;;;;;;;;5057554;28;20343;-22
2022/03/07 04:59:52;;;;;;;;;;;;;;;;;;5057601;28;19913;-21
2022/03/07 05:02:18;;;;;;;;;;;;;;;;;;5057737;28;20225;-23
2022/03/07 05:04:44;;;;;;;;;;;;;;;;;;5057447;28;20277;-21
2022/03/07 05:07:10;;;;;;;;;;;;;;;;;;5057126;28;19925;-22
2022/03/07 05:09:36;;;;;;;;;;;;;;;;;;5055908;28;20366;-22
2022/03/07 05:12:01;;;;;;;;;;;;;;;;;;5056052;28;19908;-23
2022/03/07 05:14:27;;;;;;;;;;;;;;;;;;5057528;28;19924;-24
2022/03/07 05:16:53;;;;;;;;;;;;;;;;;;5057342;28;20335;-22
2022/03/07 05:19:20;;;;;;;;;;;;;;;;;;5057177;28;19998;-22
2022/03/07 05:21:46;;;;;;;;;;;;;;;;;;5057335;28;20294;-24
2022/03/07 05:24:12;;;;;;;;;;;;;;;;;;5056949;28;19909;-24
2022/03/07 05:26:38;;;;;;;;;;;;;;;;;;5056917;28;19945;-22
2022/03/07 05:29:06;;;;;;;;;;;;;;;;;;5056813;28;19912;-21
2022/03/07 05:31:32;;;;;;;;;;;;;;;;;;5057220;28;19913;-22
2022/03/07 05:33:58;;;;;;;;;;;;;;;;;;5056903;28;20347;-22
2022/03/07 05:36:24;;;;;;;;;;;;;;;;;;5056966;28;19912;-21
2022/03/07 05:38:50;;;;;;;;;;;;;;;;;;5055680;28;19917;-23
2022/03/07 05:41:16;;;;;;;;;;;;;;;;;;5055687;28;19913;-22
2022/03/07 05:43:42;;;;;;;;;;;;;;;;;;5056477;28;19939;-22
2022/03/07 05:46:08;;;;;;;;;;;;;;;;;;5056827;28;19996;-22
2022/03/07 05:48:34;;;;;;;;;;;;;;;;;;5056513;28;20328;-23
2022/03/07 05:51:00;;;;;;;;;;;;;;;;;;5056526;28;20405;-22
2022/03/07 05:53:26;;;;;;;;;;;;;;;;;;5056531;28;19915;-22
2022/03/07 05:55:52;;;;;;;;;;;;;;;;;;5057038;28;19920;-23
2022/03/07 05:58:18;;;;;;;;;;;;;;;;;;5055516;28;19913;-24
2022/03/07 06:03:26;;;;;;;;;;;;;;;;;;5367548;22;19932;-27
2022/03/07 06:05:52;;;;;;;;;;;;;;;;;;5076175;28;19974;-27
2022/03/07 06:08:18;;;;;;;;;;;;;;;;;;5076017;28;19916;-27
2022/03/07 06:10:44;;;;;;;;;;;;;;;;;;5076989;28;19948;-26
2022/03/07 06:13:10;;;;;;;;;;;;;;;;;;5076379;28;20301;-26
2022/03/07 06:15:36;;;;;;;;;;;;;;;;;;5076698;28;19916;-26
2022/03/07 06:18:02;;;;;;;;;;;;;;;;;;5076368;28;20278;-27
2022/03/07 06:20:28;;;;;;;;;;;;;;;;;;5075602;28;19927;-26
2022/03/07 06:22:54;;;;;;;;;;;;;;;;;;5075823;28;19913;-26
2022/03/07 06:25:20;;;;;;;;;;;;;;;;;;5076051;28;20235;-26
2022/03/07 06:27:46;;;;;;;;;;;;;;;;;;5075964;28;19927;-27
2022/03/07 06:30:12;;;;;;;;;;;;;;;;;;5075728;28;19909;-27
2022/03/07 06:32:38;;;;;;;;;;;;;;;;;;5075732;28;20002;-27
2022/03/07 06:35:04;;;;;;;;;;;;;;;;;;5075622;28;20329;-26
2022/03/07 06:37:30;;;;;;;;;;;;;;;;;;5075523;28;20007;-26
2022/03/07 06:39:56;;;;;;;;;;;;;;;;;;5075581;28;19955;-26
2022/03/07 06:42:22;;;;;;;;;;;;;;;;;;5075400;28;19913;-26
2022/03/07 06:44:48;;;;;;;;;;;;;;;;;;5075719;28;19962;-26
2022/03/07 06:47:16;;;;;;;;;;;;;;;;;;5075674;28;19912;-26
2022/03/07 06:49:42;;;;;;;;;;;;;;;;;;5075275;28;19951;-26
2022/03/07 06:52:08;;;;;;;;;;;;;;;;;;5075336;28;19912;-26
2022/03/07 06:54:34;;;;;;;;;;;;;;;;;;5075591;28;19935;-26
2022/03/07 06:57:00;;;;;;;;;;;;;;;;;;5075507;28;19967;-26
2022/03/07 06:59:26;;;;;;;;;;;;;;;;;;5075480;28;19937;-27
2022/03/07 07:01:52;;;;;;;;;;;;;;;;;;5074967;28;19935;-26
2022/03/07 07:04:18;;;;;;;;;;;;;;;;;;5074967;28;20346;-27
2022/03/07 07:06:44;;;;;;;;;;;;;;;;;;5075043;28;20430;-26
2022/03/07 07:09:10;;;;;;;;;;;;;;;;;;5074950;28;19924;-26
2022/03/07 07:11:36;;;;;;;;;;;;;;;;;;5075007;28;19938;-26
2022/03/07 07:14:02;;;;;;;;;;;;;;;;;;5075292;28;19908;-26
2022/03/07 07:16:28;;;;;;;;;;;;;;;;;;5075519;28;19947;-26
2022/03/07 07:18:54;;;;;;;;;;;;;;;;;;5075443;28;19919;-26
2022/03/07 07:21:20;;;;;;;;;;;;;;;;;;5074883;28;19913;-26
2022/03/07 07:23:46;;;;;;;;;;;;;;;;;;5074858;28;19970;-27
2022/03/07 07:26:12;;;;;;;;;;;;;;;;;;5075623;28;19920;-26
2022/03/07 07:28:38;;;;;;;;;;;;;;;;;;5075329;28;19913;-27
2022/03/07 07:31:04;;;;;;;;;;;;;;;;;;5074749;28;20005;-27
2022/03/07 07:33:30;;;;;;;;;;;;;;;;;;5074071;28;19912;-27
2022/03/07 07:35:56;;;;;;;;;;;;;;;;;;5075259;28;19913;-27
2022/03/07 07:38:22;;;;;;;;;;;;;;;;;;5075255;28;19909;-27
2022/03/07 07:40:49;;;;;;;;;;;;;;;;;;5074667;28;20000;-26
2022/03/07 07:43:15;;;;;;;;;;;;;;;;;;5075015;28;19930;-26
2022/03/07 07:45:41;;;;;;;;;;;;;;;;;;5074678;28;19908;-26
2022/03/07 07:48:07;;;;;;;;;;;;;;;;;;5075068;28;19923;-26
2022/03/07 07:50:33;;;;;;;;;;;;;;;;;;5074907;28;19916;-26
2022/03/07 07:52:59;;;;;;;;;;;;;;;;;;5074499;28;19991;-26
2022/03/07 07:55:25;;;;;;;;;;;;;;;;;;5074599;28;19920;-26
2022/03/07 07:57:51;;;;;;;;;;;;;;;;;;5074576;28;19923;-26
2022/03/07 08:00:20;;;;;;;;;;;;;;;;;;5073617;28;19912;-27
2022/03/07 08:02:46;;;;;;;;;;;;;;;;;;5074513;28;19920;-27
2022/03/07 08:05:12;;;;;;;;;;;;;;;;;;5074395;28;19989;-27
2022/03/07 08:07:39;;;;;;;;;;;;;;;;;;5074229;28;19924;-27
2022/03/07 08:10:05;;;;;;;;;;;;;;;;;;5074558;28;19912;-27
2022/03/07 08:12:32;;;;;;;;;;;;;;;;;;5074102;28;19978;-27
2022/03/07 08:14:58;;;;;;;;;;;;;;;;;;5074187;28;20267;-27
2022/03/07 08:17:24;;;;;;;;;;;;;;;;;;5074710;28;19920;-27
2022/03/07 08:19:50;;;;;;;;;;;;;;;;;;5074743;28;20254;-27
2022/03/07 08:22:16;;;;;;;;;;;;;;;;;;5074037;28;19952;-27
2022/03/07 08:24:43;;;;;;;;;;;;;;;;;;5074074;28;19908;-27
2022/03/07 08:27:09;;;;;;;;;;;;;;;;;;5073921;28;19968;-27
2022/03/07 08:29:35;;;;;;;;;;;;;;;;;;5074100;28;20334;-27
2022/03/07 08:32:01;;;;;;;;;;;;;;;;;;5074041;28;19913;-25
2022/03/07 08:34:27;;;;;;;;;;;;;;;;;;5074218;28;19915;-26
2022/03/07 08:36:53;;;;;;;;;;;;;;;;;;5074768;28;19912;-26
2022/03/07 08:39:19;;;;;;;;;;;;;;;;;;5075213;28;19924;-26
2022/03/07 08:41:45;;;;;;;;;;;;;;;;;;5073113;28;19978;-26
2022/03/07 08:44:11;;;;;;;;;;;;;;;;;;5076109;28;19909;-27
2022/03/07 08:46:38;;;;;;;;;;;;;;;;;;5077919;28;19923;-27
2022/03/07 08:49:04;;;;;;;;;;;;;;;;;;5077559;28;19913;-27
2022/03/07 08:51:30;;;;;;;;;;;;;;;;;;5078033;28;19943;-27
2022/03/07 08:53:56;;;;;;;;;;;;;;;;;;5077753;28;19908;-27
2022/03/07 08:56:22;;;;;;;;;;;;;;;;;;5077959;28;19935;-27
2022/03/07 08:58:48;;;;;;;;;;;;;;;;;;5077889;28;19908;-27
2022/03/07 09:01:16;;;;;;;;;;;;;;;;;;5078228;28;19916;-27
2022/03/07 09:03:42;;;;;;;;;;;;;;;;;;5077076;28;19920;-26
2022/03/07 09:06:08;;;;;;;;;;;;;;;;;;5077758;28;19912;-27
2022/03/07 09:08:34;;;;;;;;;;;;;;;;;;5077582;28;19912;-27
2022/03/07 09:11:00;;;;;;;;;;;;;;;;;;5077940;28;19966;-27
2022/03/07 09:13:26;;;;;;;;;;;;;;;;;;5077434;28;19919;-27
2022/03/07 09:15:52;;;;;;;;;;;;;;;;;;5077344;28;20324;-27
2022/03/07 09:18:20;;;;;;;;;;;;;;;;;;5077122;28;19924;-27
2022/03/07 09:20:46;;;;;;;;;;;;;;;;;;5077398;28;19908;-27
2022/03/07 09:23:12;;;;;;;;;;;;;;;;;;5077000;28;19966;-27
2022/03/07 09:25:38;;;;;;;;;;;;;;;;;;5077100;28;19971;-27
2022/03/07 09:28:05;;;;;;;;;;;;;;;;;;5077002;28;19916;-27
2022/03/07 09:30:32;;;;;;;;;;;;;;;;;;5076936;28;19983;-27
2022/03/07 09:32:58;;;;;;;;;;;;;;;;;;5076697;28;19913;-27
2022/03/07 09:35:24;;;;;;;;;;;;;;;;;;5076997;28;19912;-26
2022/03/07 09:37:50;;;;;;;;;;;;;;;;;;5076657;28;19923;-26
2022/03/07 09:40:16;;;;;;;;;;;;;;;;;;5076807;28;19913;-26
2022/03/07 09:42:42;;;;;;;;;;;;;;;;;;5077218;28;19919;-26
2022/03/07 09:45:09;;;;;;;;;;;;;;;;;;5077024;28;20278;-26
2022/03/07 09:47:35;;;;;;;;;;;;;;;;;;5076569;28;20000;-26
2022/03/07 09:50:01;;;;;;;;;;;;;;;;;;5077007;28;19912;-26
2022/03/07 09:52:27;;;;;;;;;;;;;;;;;;5076627;28;19996;-26
2022/03/07 09:54:53;;;;;;;;;;;;;;;;;;5076470;28;19948;-26
2022/03/07 09:57:19;;;;;;;;;;;;;;;;;;5076441;28;19920;-26
2022/03/07 09:59:45;;;;;;;;;;;;;;;;;;5076742;28;19908;-26
2022/03/07 10:02:14;;;;;;;;;;;;;;;;;;5076130;28;20355;-26
2022/03/07 10:04:40;;;;;;;;;;;;;;;;;;5076259;28;19999;-26
2022/03/07 10:07:06;;;;;;;;;;;;;;;;;;5076309;28;19923;-27
2022/03/07 10:09:32;;;;;;;;;;;;;;;;;;5076103;28;19916;-27
2022/03/07 10:12:03;;;;;;;;;;;;;;;;;;5076394;28;19991;-27
2022/03/07 10:14:29;;;;;;;;;;;;;;;;;;5076067;28;19924;-27
2022/03/07 10:16:55;;;;;;;;;;;;;;;;;;5076393;28;19941;-26
2022/03/07 10:19:21;;;;;;;;;;;;;;;;;;5076014;28;19908;-26
2022/03/07 10:21:46;;;;;;;;;;;;;;;;;;5075916;28;19916;-27
2022/03/07 10:24:12;;;;;;;;;;;;;;;;;;5076498;28;20335;-27
2022/03/07 10:26:38;;;;;;;;;;;;;;;;;;5076593;28;19923;-27
2022/03/07 10:29:04;;;;;;;;;;;;;;;;;;5075989;28;19912;-26
2022/03/07 10:31:30;;;;;;;;;;;;;;;;;;5076294;28;19912;-27
2022/03/07 10:33:56;;;;;;;;;;;;;;;;;;5075707;28;19909;-26
2022/03/07 10:36:22;;;;;;;;;;;;;;;;;;5074707;28;20014;-27
2022/03/07 10:38:48;;;;;;;;;;;;;;;;;;5075621;28;19909;-26
2022/03/07 10:41:14;;;;;;;;;;;;;;;;;;5076027;28;19923;-26
2022/03/07 10:43:40;;;;;;;;;;;;;;;;;;5075596;28;19909;-26
2022/03/07 10:46:06;;;;;;;;;;;;;;;;;;5076296;28;19913;-26
2022/03/07 10:48:32;;;;;;;;;;;;;;;;;;5075615;28;19913;-26
2022/03/07 10:50:58;;;;;;;;;;;;;;;;;;5075391;28;19912;-27
2022/03/07 10:53:24;;;;;;;;;;;;;;;;;;5075351;28;19908;-27
2022/03/07 10:55:50;;;;;;;;;;;;;;;;;;5075731;28;19912;-26
2022/03/07 10:58:16;;;;;;;;;;;;;;;;;;5075269;28;19909;-25
2022/03/07 11:00:42;;;;;;;;;;;;;;;;;;5075283;28;19942;-27
2022/03/07 11:03:08;;;;;;;;;;;;;;;;;;5074972;28;19920;-27
2022/03/07 11:05:34;;;;;;;;;;;;;;;;;;5075573;28;20416;-27
2022/03/07 11:08:00;;;;;;;;;;;;;;;;;;5075475;28;19912;-27
2022/03/07 11:10:26;;;;;;;;;;;;;;;;;;5075471;28;19978;-27
2022/03/07 11:12:52;;;;;;;;;;;;;;;;;;5075380;28;19961;-27
2022/03/07 11:15:18;;;;;;;;;;;;;;;;;;5075736;28;20323;-27
2022/03/07 11:17:44;;;;;;;;;;;;;;;;;;5075584;28;19923;-27
2022/03/07 11:20:10;;;;;;;;;;;;;;;;;;5074992;28;20335;-27
2022/03/07 11:22:36;;;;;;;;;;;;;;;;;;5075480;28;19912;-27
2022/03/07 11:25:02;;;;;;;;;;;;;;;;;;5074901;28;19923;-27
2022/03/07 11:27:28;;;;;;;;;;;;;;;;;;5074933;28;19909;-27
2022/03/07 11:29:57;;;;;;;;;;;;;;;;;;5075010;28;19912;-27
2022/03/07 11:32:23;;;;;;;;;;;;;;;;;;5074902;28;19916;-27
2022/03/07 11:34:49;;;;;;;;;;;;;;;;;;5074943;28;19909;-27
2022/03/07 11:37:15;;;;;;;;;;;;;;;;;;5074816;28;20254;-27
2022/03/07 11:39:41;;;;;;;;;;;;;;;;;;5075195;28;19913;-27
2022/03/07 11:42:07;;;;;;;;;;;;;;;;;;5075312;28;20297;-27
2022/03/07 11:44:34;;;;;;;;;;;;;;;;;;5074769;28;20308;-27
2022/03/07 11:47:00;;;;;;;;;;;;;;;;;;5075203;28;19966;-27
2022/03/07 11:49:26;;;;;;;;;;;;;;;;;;5074764;28;19956;-27
2022/03/07 11:51:52;;;;;;;;;;;;;;;;;;5074698;28;19913;-27
2022/03/07 11:54:18;;;;;;;;;;;;;;;;;;5075157;28;19946;-27
2022/03/07 11:56:44;;;;;;;;;;;;;;;;;;5074864;28;19917;-27
2022/03/07 11:59:11;;;;;;;;;;;;;;;;;;5075659;28;19918;-27
2022/03/07 12:01:37;;;;;;;;;;;;;;;;;;5074717;28;19919;-27
2022/03/07 12:04:03;;;;;;;;;;;;;;;;;;5074481;28;19928;-27
2022/03/07 12:06:29;;;;;;;;;;;;;;;;;;5074661;28;19961;-27
2022/03/07 12:09:00;;;;;;;;;;;;;;;;;;5075289;28;19920;-27
2022/03/07 12:11:26;;;;;;;;;;;;;;;;;;5074645;28;19916;-25
2022/03/07 12:13:52;;;;;;;;;;;;;;;;;;5074464;28;19966;-26
2022/03/07 12:16:18;;;;;;;;;;;;;;;;;;5074813;28;19908;-26
2022/03/07 12:18:44;;;;;;;;;;;;;;;;;;5076173;28;20369;-26
2022/03/07 12:21:10;;;;;;;;;;;;;;;;;;5077974;28;20339;-26
2022/03/07 12:23:37;;;;;;;;;;;;;;;;;;5078225;28;19957;-27
2022/03/07 12:26:03;;;;;;;;;;;;;;;;;;5078090;28;19958;-27
2022/03/07 12:28:29;;;;;;;;;;;;;;;;;;5078113;28;20011;-27
2022/03/07 12:30:55;;;;;;;;;;;;;;;;;;5078154;28;19986;-27
2022/03/07 12:33:21;;;;;;;;;;;;;;;;;;5078237;28;19909;-27
2022/03/07 12:35:47;;;;;;;;;;;;;;;;;;5077930;28;20387;-27
2022/03/07 12:38:13;;;;;;;;;;;;;;;;;;5077819;28;19970;-26
2022/03/07 12:40:39;;;;;;;;;;;;;;;;;;5077963;28;19912;-27
2022/03/07 12:43:05;;;;;;;;;;;;;;;;;;5077742;28;19912;-26
2022/03/07 12:45:33;;;;;;;;;;;;;;;;;;5077637;28;19955;-26
2022/03/07 12:48:01;;;;;;;;;;;;;;;;;;5077749;28;19919;-27
2022/03/07 12:50:28;;;;;;;;;;;;;;;;;;5077614;28;19916;-27
2022/03/07 12:52:54;;;;;;;;;;;;;;;;;;5077413;28;19913;-27
2022/03/07 12:55:21;;;;;;;;;;;;;;;;;;5077707;28;20034;-27
2022/03/07 12:57:47;;;;;;;;;;;;;;;;;;5078258;28;19913;-27
2022/03/07 13:00:13;;;;;;;;;;;;;;;;;;5077611;28;19923;-27
2022/03/07 13:02:39;;;;;;;;;;;;;;;;;;5077518;28;19977;-27
2022/03/07 13:05:08;;;;;;;;;;;;;;;;;;5077708;28;20065;-27
2022/03/07 13:07:35;;;;;;;;;;;;;;;;;;5077566;28;19909;-27
2022/03/07 13:10:01;;;;;;;;;;;;;;;;;;5077384;28;19912;-27
2022/03/07 13:12:27;;;;;;;;;;;;;;;;;;5077062;28;19909;-26
2022/03/07 13:14:53;;;;;;;;;;;;;;;;;;5077039;28;19923;-26
2022/03/07 13:17:19;;;;;;;;;;;;;;;;;;5077207;28;19931;-26
2022/03/07 13:19:46;;;;;;;;;;;;;;;;;;5077200;28;19935;-26
2022/03/07 13:22:12;;;;;;;;;;;;;;;;;;5076970;28;19935;-26
2022/03/07 13:24:38;;;;;;;;;;;;;;;;;;5077632;28;19970;-26
2022/03/07 13:27:04;;;;;;;;;;;;;;;;;;5077063;28;19917;-26
2022/03/07 13:29:30;;;;;;;;;;;;;;;;;;5076266;28;19916;-26
2022/03/07 13:31:59;;;;;;;;;;;;;;;;;;5076523;28;19973;-26
2022/03/07 13:34:24;;;;;;;;;;;;;;;;;;5076767;28;19908;-26
2022/03/07 13:36:51;;;;;;;;;;;;;;;;;;5076730;28;19919;-26
2022/03/07 13:39:17;;;;;;;;;;;;;;;;;;5076825;28;19912;-26
2022/03/07 13:41:43;;;;;;;;;;;;;;;;;;5075728;28;19927;-26
2022/03/07 13:44:09;;;;;;;;;;;;;;;;;;5077070;28;19912;-27
2022/03/07 13:46:35;;;;;;;;;;;;;;;;;;5076587;28;20343;-27
2022/03/07 13:49:01;;;;;;;;;;;;;;;;;;5076676;28;19923;-27
2022/03/07 13:51:27;;;;;;;;;;;;;;;;;;5075563;28;20341;-27
2022/03/07 13:53:53;;;;;;;;;;;;;;;;;;5076389;28;19920;-26
2022/03/07 13:56:19;;;;;;;;;;;;;;;;;;5076393;28;19909;-27
2022/03/07 13:58:45;;;;;;;;;;;;;;;;;;5076675;28;19923;-26
2022/03/07 14:01:12;;;;;;;;;;;;;;;;;;5076363;28;19908;-26
2022/03/07 14:03:38;;;;;;;;;;;;;;;;;;5076043;28;19921;-26
2022/03/07 14:06:04;;;;;;;;;;;;;;;;;;5076776;28;19919;-26
2022/03/07 14:08:30;;;;;;;;;;;;;;;;;;5076159;28;19962;-26
2022/03/07 14:10:56;;;;;;;;;;;;;;;;;;5076080;28;19912;-26
2022/03/07 14:13:21;;;;;;;;;;;;;;;;;;5076226;28;19923;-27
2022/03/07 14:15:47;;;;;;;;;;;;;;;;;;5075977;28;20294;-27
2022/03/07 14:18:13;;;;;;;;;;;;;;;;;;5076024;28;19984;-27
2022/03/07 14:20:39;;;;;;;;;;;;;;;;;;5076155;28;19913;-27
2022/03/07 14:23:05;;;;;;;;;;;;;;;;;;5076235;28;19918;-27
2022/03/07 14:25:31;;;;;;;;;;;;;;;;;;5076027;28;20365;-26
2022/03/07 14:27:57;;;;;;;;;;;;;;;;;;5074912;28;19961;-27
2022/03/07 14:30:23;;;;;;;;;;;;;;;;;;5076036;28;19969;-26
2022/03/07 14:32:49;;;;;;;;;;;;;;;;;;5075549;28;20319;-26
2022/03/07 14:35:15;;;;;;;;;;;;;;;;;;5075694;28;19947;-26
2022/03/07 14:37:42;;;;;;;;;;;;;;;;;;5076168;28;19913;-26
2022/03/07 14:40:08;;;;;;;;;;;;;;;;;;5075527;28;19912;-26
2022/03/07 14:42:34;;;;;;;;;;;;;;;;;;5075079;28;19908;-26
2022/03/07 14:45:01;;;;;;;;;;;;;;;;;;5075337;28;19919;-26
2022/03/07 14:47:27;;;;;;;;;;;;;;;;;;5075977;28;19912;-26
2022/03/07 14:49:54;;;;;;;;;;;;;;;;;;5075625;28;20007;-26
2022/03/07 14:52:21;;;;;;;;;;;;;;;;;;5075600;28;19913;-27
2022/03/07 14:54:47;;;;;;;;;;;;;;;;;;5075226;28;19909;-27
2022/03/07 14:57:13;;;;;;;;;;;;;;;;;;5075676;28;19912;-27
2022/03/07 14:59:39;;;;;;;;;;;;;;;;;;5075498;28;20236;-27
2022/03/07 15:02:05;;;;;;;;;;;;;;;;;;5075163;28;19924;-27
2022/03/07 15:04:31;;;;;;;;;;;;;;;;;;5075730;28;19917;-27
2022/03/07 15:06:57;;;;;;;;;;;;;;;;;;5075083;28;20015;-27
2022/03/07 15:09:23;;;;;;;;;;;;;;;;;;5075606;28;19963;-27
2022/03/07 15:11:49;;;;;;;;;;;;;;;;;;5075197;28;20251;-27
2022/03/07 15:14:15;;;;;;;;;;;;;;;;;;5075005;28;19908;-27
2022/03/07 15:16:41;;;;;;;;;;;;;;;;;;5074979;28;19916;-27
2022/03/07 15:19:07;;;;;;;;;;;;;;;;;;5074950;28;19944;-27
2022/03/07 15:21:33;;;;;;;;;;;;;;;;;;5075463;28;19966;-27
2022/03/07 15:23:59;;;;;;;;;;;;;;;;;;5075605;28;19931;-27
2022/03/07 15:26:28;;;;;;;;;;;;;;;;;;5074745;28;19912;-26
2022/03/07 15:28:54;;;;;;;;;;;;;;;;;;5075500;28;19923;-29
2022/03/07 15:31:20;;;;;;;;;;;;;;;;;;5075293;28;19912;-27
2022/03/07 15:33:46;;;;;;;;;;;;;;;;;;5074771;28;19909;-26
2022/03/07 15:36:12;;;;;;;;;;;;;;;;;;5075662;28;19999;-26
2022/03/07 15:38:38;;;;;;;;;;;;;;;;;;5075048;28;19969;-27
2022/03/07 15:41:04;;;;;;;;;;;;;;;;;;5073743;28;20343;-27
2022/03/07 15:43:30;;;;;;;;;;;;;;;;;;5074536;28;19917;-26
2022/03/07 15:45:56;;;;;;;;;;;;;;;;;;5074639;28;19919;-27
2022/03/07 15:48:23;;;;;;;;;;;;;;;;;;5075104;28;19926;-27
2022/03/07 15:50:49;;;;;;;;;;;;;;;;;;5074623;28;19912;-27
2022/03/07 15:53:15;;;;;;;;;;;;;;;;;;5075312;28;19943;-27
2022/03/07 15:55:41;;;;;;;;;;;;;;;;;;5078961;28;19913;-26
2022/03/07 15:58:07;;;;;;;;;;;;;;;;;;5077541;28;20007;-26
2022/03/07 16:00:33;;;;;;;;;;;;;;;;;;5078665;28;20286;-27
2022/03/07 16:02:59;;;;;;;;;;;;;;;;;;5078307;28;20335;-27
2022/03/07 16:05:26;;;;;;;;;;;;;;;;;;5078767;28;19915;-27
2022/03/07 16:07:53;;;;;;;;;;;;;;;;;;5078379;28;19916;-27
2022/03/07 16:10:21;;;;;;;;;;;;;;;;;;5078973;28;19917;-27
2022/03/07 16:12:47;;;;;;;;;;;;;;;;;;5078310;28;19916;-27
2022/03/07 16:15:13;;;;;;;;;;;;;;;;;;5078768;28;19923;-27
2022/03/07 16:17:39;;;;;;;;;;;;;;;;;;5078780;28;19917;-27
2022/03/07 16:20:05;;;;;;;;;;;;;;;;;;5078433;28;20224;-27
2022/03/07 16:22:31;;;;;;;;;;;;;;;;;;5078140;28;19920;-27
2022/03/07 16:24:57;;;;;;;;;;;;;;;;;;5078684;28;20196;-27
2022/03/07 16:27:23;;;;;;;;;;;;;;;;;;5078833;28;20007;-27
2022/03/07 16:29:49;;;;;;;;;;;;;;;;;;5078643;28;20302;-27
2022/03/07 16:32:15;;;;;;;;;;;;;;;;;;5077992;28;19966;-27
2022/03/07 16:34:41;;;;;;;;;;;;;;;;;;5077938;28;19912;-27
2022/03/07 16:37:07;;;;;;;;;;;;;;;;;;5079276;28;19966;-27
2022/03/07 16:39:33;;;;;;;;;;;;;;;;;;5078190;28;20378;-27